Time;durP1;ratioP1;P1;durP2;ratioP2;P2;SDS_P1;SDS_P2;PMS_P1;PMS_P2;Temp;Humidity;BMP_temperature;BMP_pressure;BME280_temperature;BME280_humidity;BME280_pressure;Samples;Min_cycle;Max_cycle;Signal;HPM_P1;HPM_P2
2022/12/24 00:00:57;;;;;;;0.40;0.40;;;8.80;99.90;;;;;;5056022;28;20824;-82
2022/12/24 00:03:24;;;;;;;0.87;0.87;;;8.80;99.90;;;;;;5055589;28;20486;-82
2022/12/24 00:05:51;;;;;;;1.93;0.47;;;8.80;99.90;;;;;;5056010;28;20442;-82
2022/12/24 00:08:18;;;;;;;6.43;0.40;;;8.80;99.90;;;;;;5055954;28;20453;-82
2022/12/24 00:10:50;;;;;;;0.30;0.30;;;8.80;99.90;;;;;;5055900;28;20458;-82
2022/12/24 00:13:16;;;;;;;0.47;0.37;;;8.80;99.90;;;;;;5055511;28;20923;-81
2022/12/24 00:15:43;;;;;;;0.30;0.30;;;8.80;99.90;;;;;;5055827;28;20450;-81
2022/12/24 00:18:10;;;;;;;4.63;0.50;;;8.70;99.90;;;;;;5055549;28;20447;-81
2022/12/24 00:20:37;;;;;;;0.40;0.30;;;8.70;99.90;;;;;;5054943;28;20451;-82
2022/12/24 00:23:03;;;;;;;0.30;0.30;;;8.70;99.90;;;;;;5055103;28;20489;-81
2022/12/24 00:25:30;;;;;;;0.30;0.30;;;8.70;99.90;;;;;;5055402;28;20442;-82
2022/12/24 00:27:58;;;;;;;3.50;0.30;;;8.70;99.90;;;;;;5055575;28;20454;-82
2022/12/24 00:30:25;;;;;;;0.50;0.50;;;8.70;99.90;;;;;;5055535;28;20454;-81
2022/12/24 00:32:52;;;;;;;0.30;0.30;;;8.60;99.90;;;;;;5055179;28;20809;-82
2022/12/24 00:35:18;;;;;;;1.00;0.30;;;8.60;99.90;;;;;;5055415;28;20438;-82
2022/12/24 00:37:47;;;;;;;2.97;0.50;;;8.60;99.90;;;;;;5055104;28;20946;-82
2022/12/24 00:40:14;;;;;;;0.40;0.30;;;8.60;99.90;;;;;;5055399;28;20801;-82
2022/12/24 00:42:40;;;;;;;3.37;0.50;;;8.60;99.90;;;;;;5054903;28;20493;-82
2022/12/24 00:45:10;;;;;;;0.70;0.33;;;8.60;99.90;;;;;;5055290;28;20450;-81
2022/12/24 00:47:37;;;;;;;0.30;0.30;;;8.60;99.90;;;;;;5055220;28;20451;-82
2022/12/24 00:50:04;;;;;;;0.30;0.30;;;8.60;99.90;;;;;;5054906;28;20446;-82
2022/12/24 00:52:31;;;;;;;0.40;0.30;;;8.60;99.90;;;;;;5054843;28;20443;-81
2022/12/24 00:54:58;;;;;;;0.43;0.30;;;8.50;99.90;;;;;;5054759;28;20978;-81
2022/12/24 00:57:24;;;;;;;0.30;0.30;;;8.50;99.90;;;;;;5054783;28;20942;-82
2022/12/24 00:59:51;;;;;;;0.50;0.30;;;8.50;99.90;;;;;;5055018;28;20454;-81
2022/12/24 01:02:19;;;;;;;0.30;0.30;;;8.40;99.90;;;;;;5054887;28;20450;-82
2022/12/24 01:07:30;;;;;;;0.30;0.20;;;8.40;99.90;;;;;;5054649;28;20414;-82
2022/12/24 01:09:57;;;;;;;2.73;0.50;;;8.40;99.90;;;;;;5055041;28;20457;-82
2022/12/24 01:12:24;;;;;;;0.30;0.30;;;8.40;99.90;;;;;;5054443;28;20454;-81
2022/12/24 01:14:51;;;;;;;6.27;0.40;;;8.40;99.90;;;;;;5054556;28;20474;-81
2022/12/24 01:17:19;;;;;;;0.40;0.30;;;8.50;99.90;;;;;;5054678;28;20529;-81
2022/12/24 01:19:45;;;;;;;0.83;0.30;;;8.50;99.90;;;;;;5054837;28;20446;-82
2022/12/24 01:22:12;;;;;;;0.30;0.30;;;8.50;99.90;;;;;;5054497;28;20817;-82
2022/12/24 01:24:40;;;;;;;0.30;0.30;;;8.50;99.90;;;;;;5054166;28;20489;-81
2022/12/24 01:27:07;;;;;;;0.30;0.20;;;8.60;99.90;;;;;;5054182;28;20422;-81
2022/12/24 01:29:34;;;;;;;0.30;0.20;;;8.60;99.90;;;;;;5054393;28;20821;-81
2022/12/24 01:32:01;;;;;;;0.30;0.27;;;8.70;99.90;;;;;;5053763;28;20446;-82
2022/12/24 01:34:29;;;;;;;0.30;0.30;;;8.70;99.90;;;;;;5054154;28;20474;-82
2022/12/24 01:36:55;;;;;;;0.30;0.20;;;8.70;99.90;;;;;;5054258;28;20442;-82
2022/12/24 01:39:22;;;;;;;0.50;0.30;;;8.70;99.90;;;;;;5053909;28;20450;-82
2022/12/24 01:44:36;;;;;;;0.40;0.30;;;8.60;99.90;;;;;;5053956;28;20867;-82
2022/12/24 01:47:09;;;;;;;0.50;0.50;;;8.60;99.90;;;;;;5053806;28;20455;-81
2022/12/24 01:49:39;;;;;;;0.30;0.27;;;8.60;99.90;;;;;;5053954;28;20914;-81
2022/12/24 01:52:09;;;;;;;0.30;0.20;;;8.60;99.90;;;;;;5053605;28;20442;-81
2022/12/24 01:54:38;;;;;;;0.63;0.30;;;8.60;99.90;;;;;;5053586;28;20466;-81
2022/12/24 01:57:09;;;;;;;0.30;0.20;;;8.60;99.90;;;;;;5053647;28;20435;-82
2022/12/24 01:59:37;;;;;;;0.30;0.20;;;8.60;99.90;;;;;;5053887;28;20445;-81
2022/12/24 02:02:04;;;;;;;0.30;0.30;;;8.60;99.90;;;;;;5053756;28;20470;-81
2022/12/24 02:04:36;;;;;;;0.30;0.20;;;8.60;99.90;;;;;;5053337;28;20864;-82
2022/12/24 02:07:04;;;;;;;1.33;1.07;;;8.60;99.90;;;;;;5053780;28;20453;-82
2022/12/24 02:09:32;;;;;;;0.30;0.30;;;8.60;99.90;;;;;;5053629;28;20463;-81
2022/12/24 02:12:00;;;;;;;0.40;0.30;;;8.70;99.90;;;;;;5053642;28;20450;-82
2022/12/24 02:14:31;;;;;;;1.23;0.50;;;8.70;99.90;;;;;;5053781;28;20462;-81
2022/12/24 02:17:04;;;;;;;0.30;0.30;;;8.70;99.90;;;;;;5053592;28;20481;-81
2022/12/24 02:20:25;;;;;;;0.40;0.40;;;8.70;99.90;;;;;;5053236;28;20800;-81
2022/12/24 02:23:16;;;;;;;0.40;0.40;;;8.60;99.90;;;;;;5041346;28;20498;-82
2022/12/24 02:25:58;;;;;;;0.30;0.30;;;8.60;99.90;;;;;;5053444;28;20457;-82
2022/12/24 02:28:43;;;;;;;1.30;1.27;;;8.70;99.90;;;;;;5053468;28;20434;-82
2022/12/24 02:31:16;;;;;;;1.33;1.13;;;8.70;99.90;;;;;;5053791;28;20777;-81
2022/12/24 02:33:50;;;;;;;0.63;0.30;;;8.70;99.90;;;;;;5053299;28;20970;-81
2022/12/24 02:36:25;;;;;;;0.30;0.30;;;8.80;99.90;;;;;;5053376;28;20442;-82
2022/12/24 02:38:58;;;;;;;0.30;0.30;;;8.80;99.90;;;;;;5053037;28;20811;-82
2022/12/24 02:42:04;;;;;;;1.77;1.63;;;8.90;99.90;;;;;;5053000;28;20945;-82
2022/12/24 02:44:17;;;;;;;0.40;0.40;;;8.90;99.90;;;;;;5052257;28;20859;-81
2022/12/24 02:46:46;;;;;;;0.50;0.40;;;8.90;99.90;;;;;;5052951;28;20461;-81
2022/12/24 02:49:13;;;;;;;0.30;0.30;;;8.90;99.90;;;;;;5053254;28;20461;-81
2022/12/24 02:51:40;;;;;;;1.23;0.40;;;8.90;99.90;;;;;;5053156;28;20462;-81
2022/12/24 02:54:07;;;;;;;0.40;0.30;;;8.90;99.90;;;;;;5053091;28;20470;-81
2022/12/24 02:56:54;;;;;;;0.50;0.50;;;8.80;99.90;;;;;;5052806;28;20946;-81
2022/12/24 02:59:39;;;;;;;0.53;0.47;;;8.80;99.90;;;;;;5053149;28;20436;-81
2022/12/24 03:02:18;;;;;;;0.30;0.30;;;8.70;99.90;;;;;;5053100;28;20427;-81
2022/12/24 03:04:56;;;;;;;0.30;0.20;;;8.70;99.90;;;;;;5052654;28;20486;-80
2022/12/24 03:07:28;;;;;;;0.40;0.30;;;8.70;99.90;;;;;;5053069;28;20435;-81
2022/12/24 03:10:03;;;;;;;0.37;0.37;;;8.60;99.90;;;;;;5052756;28;20435;-80
2022/12/24 03:12:34;;;;;;;0.30;0.30;;;8.50;99.90;;;;;;5052900;28;20972;-81
2022/12/24 03:15:03;;;;;;;0.30;0.20;;;8.40;99.90;;;;;;5052960;28;20462;-81
2022/12/24 03:17:36;;;;;;;2.20;0.40;;;8.40;99.90;;;;;;5052775;28;20458;-81
2022/12/24 03:20:04;;;;;;;1.37;0.50;;;8.40;99.90;;;;;;5052972;28;20800;-81
2022/12/24 03:22:33;;;;;;;0.97;0.30;;;8.30;99.90;;;;;;5052957;28;20824;-81
2022/12/24 03:25:00;;;;;;;0.30;0.20;;;8.20;99.90;;;;;;5052329;28;20493;-81
2022/12/24 03:27:28;;;;;;;0.30;0.20;;;8.20;99.90;;;;;;5052587;28;20442;-81
2022/12/24 03:29:55;;;;;;;0.30;0.30;;;8.20;99.90;;;;;;5052495;28;20946;-81
2022/12/24 03:32:25;;;;;;;0.30;0.30;;;8.20;99.90;;;;;;5052485;28;21039;-81
2022/12/24 03:34:53;;;;;;;0.30;0.30;;;8.20;99.90;;;;;;5052743;28;20470;-81
2022/12/24 03:37:20;;;;;;;0.30;0.30;;;8.20;99.90;;;;;;5052978;28;20480;-81
2022/12/24 03:39:47;;;;;;;0.30;0.30;;;8.20;99.90;;;;;;5052740;28;20465;-80
2022/12/24 03:42:13;;;;;;;0.30;0.30;;;8.30;99.90;;;;;;5052696;28;20450;-81
2022/12/24 03:44:40;;;;;;;1.07;0.30;;;8.30;99.90;;;;;;5052275;28;21079;-81
2022/12/24 03:47:07;;;;;;;0.70;0.60;;;8.30;99.90;;;;;;5052409;28;20957;-81
2022/12/24 03:49:34;;;;;;;0.30;0.30;;;8.30;99.90;;;;;;5052726;28;20445;-81
2022/12/24 03:52:02;;;;;;;0.30;0.30;;;8.30;99.90;;;;;;5052421;28;20427;-81
2022/12/24 03:54:29;;;;;;;0.30;0.30;;;8.30;99.90;;;;;;5052561;28;20467;-81
2022/12/24 03:56:55;;;;;;;0.30;0.30;;;8.30;99.90;;;;;;5054775;28;20815;-81
2022/12/24 03:59:22;;;;;;;1.13;0.30;;;8.30;99.90;;;;;;5055827;28;20452;-81
2022/12/24 04:01:49;;;;;;;1.00;0.40;;;8.30;99.90;;;;;;5056088;28;20457;-81
2022/12/24 04:04:16;;;;;;;0.93;0.57;;;8.40;99.90;;;;;;5055586;28;20543;-81
2022/12/24 04:06:43;;;;;;;0.30;0.30;;;8.40;99.90;;;;;;5055979;28;20453;-81
2022/12/24 04:09:11;;;;;;;0.30;0.30;;;8.30;99.90;;;;;;5055956;28;20450;-81
2022/12/24 04:11:38;;;;;;;0.30;0.30;;;8.30;99.90;;;;;;5055879;28;20942;-81
2022/12/24 04:14:04;;;;;;;0.30;0.30;;;8.30;99.90;;;;;;5055762;28;20470;-81
2022/12/24 04:16:31;;;;;;;4.30;0.77;;;8.30;99.90;;;;;;5055805;28;20451;-81
2022/12/24 04:18:58;;;;;;;1.87;0.47;;;8.30;99.90;;;;;;5055741;28;20541;-81
2022/12/24 04:21:24;;;;;;;0.40;0.40;;;8.20;99.90;;;;;;5055717;28;20485;-81
2022/12/24 04:23:51;;;;;;;0.30;0.20;;;8.20;99.90;;;;;;5055267;28;20497;-81
2022/12/24 04:26:19;;;;;;;0.30;0.20;;;8.20;99.90;;;;;;5055662;28;20450;-81
2022/12/24 04:28:46;;;;;;;0.30;0.30;;;8.20;99.90;;;;;;5055574;28;20450;-81
2022/12/24 04:31:15;;;;;;;0.30;0.20;;;8.20;99.90;;;;;;5055378;28;20442;-80
2022/12/24 04:33:42;;;;;;;0.30;0.30;;;8.20;99.90;;;;;;5055137;28;20466;-81
2022/12/24 04:36:13;;;;;;;1.67;0.53;;;8.20;99.90;;;;;;5055106;28;20450;-81
2022/12/24 04:38:40;;;;;;;0.30;0.30;;;8.30;99.90;;;;;;5055413;28;20536;-81
2022/12/24 04:41:10;;;;;;;0.50;0.50;;;8.30;99.90;;;;;;5055399;28;20442;-81
2022/12/24 04:43:38;;;;;;;0.83;0.30;;;8.30;99.90;;;;;;5054853;28;20489;-81
2022/12/24 04:46:06;;;;;;;0.37;0.37;;;8.30;99.90;;;;;;5055371;28;20446;-81
2022/12/24 04:48:33;;;;;;;0.30;0.30;;;8.30;99.90;;;;;;5055233;28;20536;-81
2022/12/24 04:51:01;;;;;;;0.30;0.20;;;8.20;99.90;;;;;;5055195;28;20461;-81
2022/12/24 04:53:28;;;;;;;0.30;0.20;;;8.20;99.90;;;;;;5055132;28;20466;-81
2022/12/24 04:55:55;;;;;;;0.30;0.20;;;8.30;99.90;;;;;;5054894;28;20458;-81
2022/12/24 04:58:21;;;;;;;0.30;0.30;;;8.20;99.90;;;;;;5055051;28;20454;-81
2022/12/24 05:00:49;;;;;;;0.30;0.30;;;8.30;99.90;;;;;;5054988;28;20455;-81
2022/12/24 05:03:16;;;;;;;2.83;0.47;;;8.40;99.90;;;;;;5054886;28;20549;-81
2022/12/24 05:05:43;;;;;;;0.30;0.20;;;8.40;99.90;;;;;;5054851;28;20486;-81
2022/12/24 05:08:10;;;;;;;0.40;0.30;;;8.40;99.90;;;;;;5054264;28;20497;-81
2022/12/24 05:10:37;;;;;;;0.30;0.30;;;8.50;99.90;;;;;;5054990;28;20450;-81
2022/12/24 05:13:04;;;;;;;0.43;0.43;;;8.50;99.90;;;;;;5054718;28;20537;-81
2022/12/24 05:15:31;;;;;;;0.30;0.30;;;8.50;99.90;;;;;;5054818;28;20435;-81
2022/12/24 05:17:59;;;;;;;0.63;0.63;;;8.60;99.90;;;;;;5054349;28;20984;-81
2022/12/24 05:20:25;;;;;;;0.37;0.33;;;8.60;99.90;;;;;;5054590;28;20450;-81
2022/12/24 05:28:23;;;;;;;0.40;0.30;;;8.60;99.90;;;;;;5054511;28;20764;-81
2022/12/24 05:30:50;;;;;;;0.70;0.70;;;8.70;99.90;;;;;;5054513;28;20581;-81
2022/12/24 05:33:18;;;;;;;0.53;0.53;;;8.70;99.90;;;;;;5054357;28;20466;-81
2022/12/24 05:35:45;;;;;;;0.87;0.30;;;8.60;99.90;;;;;;5054033;28;20445;-81
2022/12/24 05:38:11;;;;;;;1.17;0.40;;;8.60;99.90;;;;;;5054545;28;20450;-82
2022/12/24 05:40:38;;;;;;;0.40;0.30;;;8.50;99.90;;;;;;5054102;28;20442;-82
2022/12/24 05:43:05;;;;;;;0.60;0.43;;;8.50;99.90;;;;;;5053871;28;20969;-82
2022/12/24 05:45:31;;;;;;;0.30;0.30;;;8.50;99.90;;;;;;5054114;28;20483;-82
2022/12/24 05:47:59;;;;;;;0.30;0.30;;;8.50;99.90;;;;;;5054134;28;20450;-83
2022/12/24 05:50:27;;;;;;;0.97;0.63;;;8.40;99.90;;;;;;5054085;28;20450;-83
2022/12/24 05:52:54;;;;;;;0.40;0.37;;;8.40;99.90;;;;;;5053982;28;20446;-83
2022/12/24 05:55:20;;;;;;;0.40;0.30;;;8.40;99.90;;;;;;5053972;28;20454;-83
2022/12/24 05:57:47;;;;;;;0.30;0.30;;;8.30;99.90;;;;;;5053680;28;20954;-83
2022/12/24 06:00:14;;;;;;;0.30;0.27;;;8.30;99.90;;;;;;5053638;28;20925;-83
2022/12/24 06:02:41;;;;;;;0.30;0.30;;;8.20;99.90;;;;;;5053519;28;20445;-83
2022/12/24 06:05:08;;;;;;;0.50;0.30;;;8.20;99.90;;;;;;5053811;28;20497;-83
2022/12/24 06:07:36;;;;;;;0.30;0.30;;;8.20;99.90;;;;;;5053691;28;20454;-83
2022/12/24 06:10:04;;;;;;;0.30;0.20;;;8.20;99.90;;;;;;5053751;28;20454;-82
2022/12/24 06:12:30;;;;;;;0.60;0.60;;;8.20;99.90;;;;;;5053665;28;20461;-83
2022/12/24 06:14:57;;;;;;;0.73;0.40;;;8.20;99.90;;;;;;5053616;28;20466;-82
2022/12/24 06:17:24;;;;;;;0.40;0.30;;;8.20;99.90;;;;;;5053680;28;20442;-82
2022/12/24 06:19:51;;;;;;;0.40;0.40;;;8.20;99.90;;;;;;5052944;28;20441;-83
2022/12/24 06:22:17;;;;;;;0.50;0.40;;;8.20;99.90;;;;;;5053372;28;20466;-82
2022/12/24 06:24:46;;;;;;;4.13;0.40;;;8.20;99.90;;;;;;5053254;28;20938;-82
2022/12/24 06:27:12;;;;;;;0.30;0.27;;;8.10;99.90;;;;;;5053495;28;20457;-82
2022/12/24 06:29:39;;;;;;;0.33;0.30;;;8.20;99.90;;;;;;5053145;28;20446;-82
2022/12/24 06:32:06;;;;;;;0.70;0.60;;;8.20;99.90;;;;;;5053392;28;20461;-82
2022/12/24 06:34:33;;;;;;;0.30;0.20;;;8.10;99.90;;;;;;5053313;28;20466;-83
2022/12/24 06:36:59;;;;;;;0.30;0.30;;;8.10;99.90;;;;;;5053075;28;20447;-82
2022/12/24 06:39:26;;;;;;;0.40;0.30;;;8.10;99.90;;;;;;5053488;28;20457;-82
2022/12/24 06:41:54;;;;;;;2.93;0.93;;;8.10;99.90;;;;;;5053566;28;20807;-82
2022/12/24 06:44:21;;;;;;;0.40;0.40;;;8.10;99.90;;;;;;5052958;28;20478;-82
2022/12/24 06:46:48;;;;;;;0.30;0.20;;;8.20;99.90;;;;;;5053362;28;20818;-82
2022/12/24 06:49:15;;;;;;;0.30;0.30;;;8.20;99.90;;;;;;5053174;28;20447;-82
2022/12/24 06:51:42;;;;;;;0.30;0.30;;;8.30;99.90;;;;;;5053518;28;20442;-82
2022/12/24 06:54:08;;;;;;;0.67;0.60;;;8.30;99.90;;;;;;5053153;28;20470;-83
2022/12/24 06:56:35;;;;;;;0.30;0.30;;;8.30;99.90;;;;;;5052890;28;20448;-82
2022/12/24 06:59:03;;;;;;;0.40;0.30;;;8.30;99.90;;;;;;5053172;28;20457;-83
2022/12/24 07:01:30;;;;;;;0.40;0.30;;;8.30;99.90;;;;;;5053128;28;20451;-82
2022/12/24 07:03:57;;;;;;;1.70;0.50;;;8.30;99.90;;;;;;5052967;28;20470;-83
2022/12/24 07:06:26;;;;;;;0.30;0.30;;;8.30;99.90;;;;;;5053069;28;20461;-83
2022/12/24 07:08:53;;;;;;;0.30;0.30;;;8.20;99.90;;;;;;5053095;28;20450;-83
2022/12/24 07:11:20;;;;;;;0.30;0.30;;;8.20;99.90;;;;;;5052764;28;20893;-82
2022/12/24 07:13:48;;;;;;;0.30;0.30;;;8.20;99.90;;;;;;5052956;28;20473;-83
2022/12/24 07:16:16;;;;;;;0.30;0.20;;;8.20;99.90;;;;;;5052992;28;20451;-82
2022/12/24 07:18:43;;;;;;;0.30;0.30;;;8.20;99.90;;;;;;5052976;28;20446;-82
2022/12/24 07:21:10;;;;;;;0.50;0.50;;;8.10;99.90;;;;;;5052631;28;20954;-83
2022/12/24 07:23:36;;;;;;;0.30;0.30;;;8.10;99.90;;;;;;5052721;28;20501;-82
2022/12/24 07:26:06;;;;;;;0.67;0.67;;;8.10;99.90;;;;;;5052517;28;20486;-83
2022/12/24 07:28:33;;;;;;;1.03;0.50;;;8.10;99.90;;;;;;5052943;28;20430;-84
2022/12/24 07:31:00;;;;;;;0.37;0.33;;;8.10;99.90;;;;;;5055727;28;20435;-86
2022/12/24 07:33:29;;;;;;;1.50;0.40;;;8.10;99.90;;;;;;5056635;28;20881;-83
2022/12/24 07:36:00;;;;;;;0.50;0.50;;;8.10;99.90;;;;;;5056336;28;20901;-83
2022/12/24 07:38:27;;;;;;;0.40;0.40;;;8.10;99.90;;;;;;5056302;28;20824;-83
2022/12/24 07:40:54;;;;;;;0.60;0.33;;;8.10;99.90;;;;;;5056243;28;20456;-83
2022/12/24 07:43:22;;;;;;;0.30;0.30;;;8.10;99.90;;;;;;5056116;28;20997;-83
2022/12/24 07:45:49;;;;;;;0.30;0.20;;;8.10;99.90;;;;;;5056413;28;20479;-83
2022/12/24 07:48:16;;;;;;;10.23;0.63;;;8.10;99.90;;;;;;5056393;28;20468;-83
2022/12/24 07:50:44;;;;;;;0.50;0.30;;;8.10;99.90;;;;;;5056361;28;20822;-83
2022/12/24 07:53:11;;;;;;;0.30;0.30;;;8.20;99.90;;;;;;5056240;28;20466;-83
2022/12/24 07:55:38;;;;;;;1.03;0.30;;;8.20;99.90;;;;;;5056598;28;20447;-83
2022/12/24 07:58:04;;;;;;;1.07;0.33;;;8.30;99.90;;;;;;5056285;28;20458;-83
2022/12/24 08:00:31;;;;;;;0.30;0.30;;;8.40;99.90;;;;;;5056225;28;20457;-83
2022/12/24 08:02:58;;;;;;;0.30;0.30;;;8.40;99.90;;;;;;5056197;28;20851;-83
2022/12/24 08:05:26;;;;;;;0.30;0.30;;;8.50;99.90;;;;;;5055996;28;20482;-83
2022/12/24 08:07:55;;;;;;;0.30;0.30;;;8.60;99.90;;;;;;5055739;28;20450;-83
2022/12/24 08:10:22;;;;;;;2.10;0.47;;;8.70;99.90;;;;;;5055725;28;20518;-82
2022/12/24 08:12:49;;;;;;;0.37;0.30;;;8.70;99.90;;;;;;5055932;28;20442;-83
2022/12/24 08:15:16;;;;;;;0.30;0.30;;;8.70;99.90;;;;;;5056702;28;20817;-83
2022/12/24 08:17:42;;;;;;;0.77;0.40;;;8.80;99.90;;;;;;5056913;28;20453;-83
2022/12/24 08:20:10;;;;;;;0.30;0.30;;;8.80;99.90;;;;;;5056351;28;20447;-83
2022/12/24 08:22:37;;;;;;;0.40;0.40;;;8.90;99.90;;;;;;5055791;28;20914;-83
2022/12/24 08:25:05;;;;;;;0.40;0.30;;;8.90;99.90;;;;;;5055688;28;21009;-82
2022/12/24 08:27:32;;;;;;;0.40;0.40;;;8.90;99.90;;;;;;5058306;28;20942;-82
2022/12/24 08:29:59;;;;;;;5.70;0.83;;;9.00;99.90;;;;;;5060830;28;20458;-83
2022/12/24 08:32:26;;;;;;;0.40;0.40;;;9.00;99.90;;;;;;5061486;28;20450;-84
2022/12/24 08:34:52;;;;;;;0.30;0.30;;;9.00;99.90;;;;;;5059384;28;20996;-83
2022/12/24 08:37:19;;;;;;;0.30;0.30;;;9.00;99.90;;;;;;5055140;28;20973;-83
2022/12/24 08:39:46;;;;;;;0.30;0.30;;;9.00;99.90;;;;;;5055181;28;20537;-83
2022/12/24 08:42:14;;;;;;;0.40;0.40;;;9.10;99.90;;;;;;5054401;28;20446;-83
2022/12/24 08:44:40;;;;;;;3.50;0.40;;;9.10;99.90;;;;;;5055193;28;20474;-83
2022/12/24 08:47:07;;;;;;;1.63;0.30;;;9.10;99.90;;;;;;5055092;28;20453;-83
2022/12/24 08:49:34;;;;;;;2.47;0.43;;;9.20;99.90;;;;;;5055786;28;20446;-83
2022/12/24 08:52:01;;;;;;;0.40;0.30;;;9.30;99.90;;;;;;5055219;28;20441;-83
2022/12/24 08:54:28;;;;;;;0.60;0.40;;;9.30;99.90;;;;;;5055520;28;20500;-83
2022/12/24 08:56:54;;;;;;;7.30;0.43;;;9.20;99.90;;;;;;5055157;28;20451;-83
2022/12/24 08:59:22;;;;;;;0.40;0.30;;;9.30;99.90;;;;;;5055045;28;20450;-82
2022/12/24 09:01:49;;;;;;;1.07;0.40;;;9.30;99.90;;;;;;5054845;28;20458;-83
2022/12/24 09:04:16;;;;;;;0.40;0.30;;;9.30;99.90;;;;;;5054951;28;20466;-83
2022/12/24 09:06:43;;;;;;;0.30;0.30;;;9.40;99.90;;;;;;5055069;28;20489;-83
2022/12/24 09:09:09;;;;;;;0.40;0.30;;;9.40;99.90;;;;;;5054945;28;20454;-83
2022/12/24 09:11:36;;;;;;;0.50;0.40;;;9.50;99.90;;;;;;5054845;28;20446;-82
2022/12/24 09:14:03;;;;;;;0.40;0.30;;;9.60;99.90;;;;;;5054437;28;20832;-83
2022/12/24 09:16:31;;;;;;;0.80;0.80;;;9.70;99.90;;;;;;5054769;28;20446;-82
2022/12/24 09:18:58;;;;;;;0.40;0.33;;;10.00;99.90;;;;;;5054691;28;20446;-83
2022/12/24 09:21:25;;;;;;;0.40;0.30;;;10.10;99.90;;;;;;5054609;28;20457;-83
2022/12/24 09:23:52;;;;;;;0.30;0.20;;;10.20;99.90;;;;;;5054280;28;20490;-83
2022/12/24 09:26:21;;;;;;;0.40;0.33;;;10.40;99.90;;;;;;5054538;28;20600;-83
2022/12/24 09:28:49;;;;;;;7.50;0.50;;;10.40;99.90;;;;;;5054187;28;20442;-82
2022/12/24 09:31:17;;;;;;;0.30;0.30;;;10.50;99.90;;;;;;5054196;28;20431;-83
2022/12/24 09:33:47;;;;;;;0.60;0.60;;;10.60;99.90;;;;;;5054627;28;20466;-82
2022/12/24 09:36:14;;;;;;;0.30;0.27;;;10.60;99.90;;;;;;5054363;28;20438;-82
2022/12/24 09:38:41;;;;;;;0.50;0.30;;;10.50;99.90;;;;;;5054296;28;20809;-82
2022/12/24 09:41:13;;;;;;;0.50;0.50;;;10.40;99.90;;;;;;5054013;28;21048;-82
2022/12/24 09:43:44;;;;;;;0.80;0.80;;;10.30;99.90;;;;;;5054173;28;20545;-82
2022/12/24 09:46:20;;;;;;;0.30;0.20;;;10.20;99.90;;;;;;5053839;28;21032;-83
2022/12/24 09:48:52;;;;;;;0.40;0.40;;;10.20;99.90;;;;;;5054208;28;20434;-82
2022/12/24 09:51:27;;;;;;;0.30;0.30;;;10.20;99.90;;;;;;5053836;28;20441;-83
2022/12/24 09:53:57;;;;;;;0.37;0.37;;;10.10;99.90;;;;;;5053062;28;20528;-82
2022/12/24 09:56:26;;;;;;;0.30;0.30;;;10.00;99.90;;;;;;5053707;28;20953;-82
2022/12/24 09:58:58;;;;;;;0.30;0.30;;;10.00;99.90;;;;;;5054172;28;20454;-83
2022/12/24 10:01:25;;;;;;;0.40;0.30;;;10.40;99.90;;;;;;5053966;28;20443;-82
2022/12/24 10:03:53;;;;;;;0.70;0.40;;;11.60;99.90;;;;;;5053529;28;20473;-83
2022/12/24 10:06:21;;;;;;;0.40;0.40;;;12.70;99.90;;;;;;5053470;28;20478;-82
2022/12/24 10:09:02;;;;;;;0.30;0.30;;;14.00;99.90;;;;;;5053736;28;20450;-83
2022/12/24 10:11:42;;;;;;;0.70;0.50;;;14.90;99.90;;;;;;5053520;28;20442;-83
2022/12/24 10:14:19;;;;;;;0.33;0.33;;;15.40;99.90;;;;;;5053662;28;20828;-83
2022/12/24 10:16:52;;;;;;;0.53;0.30;;;15.20;99.90;;;;;;5053649;28;20444;-82
2022/12/24 10:19:25;;;;;;;1.17;0.40;;;14.60;99.90;;;;;;5053670;28;20434;-82
2022/12/24 10:22:04;;;;;;;0.30;0.30;;;14.20;99.90;;;;;;5053617;28;20564;-83
2022/12/24 10:24:38;;;;;;;1.10;0.60;;;13.90;99.90;;;;;;5053363;28;20501;-82
2022/12/24 10:27:13;;;;;;;0.40;0.30;;;13.60;99.90;;;;;;5053524;28;20471;-82
2022/12/24 10:29:43;;;;;;;0.30;0.30;;;13.40;99.90;;;;;;5053516;28;20474;-83
2022/12/24 10:32:18;;;;;;;0.90;0.37;;;13.00;99.90;;;;;;5053523;28;20435;-82
2022/12/24 10:34:53;;;;;;;0.70;0.40;;;12.80;99.90;;;;;;5053422;28;20470;-82
2022/12/24 10:37:23;;;;;;;0.30;0.30;;;12.60;99.90;;;;;;5053971;28;20456;-82
2022/12/24 10:39:51;;;;;;;1.90;1.37;;;12.50;99.90;;;;;;5053285;28;20438;-82
2022/12/24 10:42:18;;;;;;;0.30;0.20;;;12.30;99.90;;;;;;5053706;28;20914;-82
2022/12/24 10:44:49;;;;;;;0.30;0.30;;;12.10;99.90;;;;;;5053231;28;20481;-83
2022/12/24 10:47:17;;;;;;;0.30;0.30;;;12.10;99.90;;;;;;5053310;28;20467;-83
2022/12/24 10:49:50;;;;;;;1.40;0.50;;;12.00;99.90;;;;;;5053019;28;20882;-83
2022/12/24 10:52:21;;;;;;;0.40;0.40;;;12.00;99.90;;;;;;5053332;28;20824;-82
2022/12/24 10:55:11;;;;;;;0.60;0.60;;;12.00;99.90;;;;;;5053505;28;20462;-82
2022/12/24 10:57:39;;;;;;;0.30;0.30;;;11.90;99.90;;;;;;5053193;28;20945;-82
2022/12/24 11:00:15;;;;;;;0.53;0.30;;;11.80;99.90;;;;;;5053192;28;20457;-83
2022/12/24 11:02:42;;;;;;;0.60;0.30;;;11.70;99.90;;;;;;5052046;28;20811;-82
2022/12/24 11:05:29;;;;;;;0.40;0.30;;;11.70;99.90;;;;;;5054675;28;20461;-83
2022/12/24 11:08:00;;;;;;;4.47;0.50;;;11.70;99.90;;;;;;5057338;28;20447;-83
2022/12/24 11:10:27;;;;;;;0.30;0.30;;;11.60;99.90;;;;;;5058542;28;20442;-82
2022/12/24 11:12:54;;;;;;;7.70;0.50;;;11.60;99.90;;;;;;5058132;28;20438;-83
2022/12/24 11:15:24;;;;;;;0.40;0.30;;;11.60;99.90;;;;;;5059326;28;20442;-83
2022/12/24 11:17:54;;;;;;;0.30;0.20;;;11.50;99.90;;;;;;5059941;28;20456;-82
2022/12/24 11:20:27;;;;;;;0.40;0.33;;;11.50;99.90;;;;;;5059639;28;20465;-83
2022/12/24 11:22:54;;;;;;;0.33;0.30;;;11.50;99.90;;;;;;5057795;28;20428;-84
2022/12/24 11:25:24;;;;;;;0.30;0.30;;;11.50;99.90;;;;;;5056860;28;20435;-82
2022/12/24 11:27:51;;;;;;;0.37;0.30;;;11.40;99.90;;;;;;5056906;28;20426;-82
2022/12/24 11:30:28;;;;;;;0.30;0.30;;;11.40;99.90;;;;;;5056932;28;20457;-83
2022/12/24 11:33:17;;;;;;;0.37;0.30;;;11.50;99.90;;;;;;5057046;28;20442;-82
2022/12/24 11:35:49;;;;;;;0.30;0.20;;;11.50;99.90;;;;;;5048475;28;20820;-83
2022/12/24 11:38:21;;;;;;;0.60;0.40;;;11.50;99.90;;;;;;5056738;28;20949;-83
2022/12/24 11:40:50;;;;;;;0.30;0.30;;;11.70;99.90;;;;;;5056788;28;20431;-83
2022/12/24 11:43:18;;;;;;;0.43;0.40;;;11.80;99.90;;;;;;5056459;28;20468;-83
2022/12/24 11:45:50;;;;;;;0.30;0.20;;;11.90;99.90;;;;;;5056427;28;20489;-83
2022/12/24 11:48:29;;;;;;;0.80;0.63;;;12.00;99.90;;;;;;5056471;28;20453;-83
2022/12/24 11:51:00;;;;;;;0.40;0.33;;;12.10;99.90;;;;;;5056598;28;20434;-82
2022/12/24 11:53:34;;;;;;;0.50;0.50;;;12.20;99.90;;;;;;5056154;28;20970;-83
2022/12/24 11:56:07;;;;;;;1.83;0.40;;;12.20;99.90;;;;;;5056384;28;20411;-83
2022/12/24 11:58:40;;;;;;;0.77;0.40;;;12.20;99.90;;;;;;5056378;28;20514;-83
2022/12/24 12:01:16;;;;;;;0.60;0.43;;;12.30;99.90;;;;;;5056377;28;20435;-83
2022/12/24 12:03:48;;;;;;;0.40;0.30;;;12.30;99.90;;;;;;5055754;28;20496;-83
2022/12/24 12:06:26;;;;;;;0.30;0.30;;;12.40;99.90;;;;;;5055917;28;20989;-83
2022/12/24 12:08:56;;;;;;;0.40;0.40;;;12.20;99.90;;;;;;5056259;28;20443;-84
2022/12/24 12:11:25;;;;;;;2.07;1.07;;;12.30;99.90;;;;;;5056117;28;20439;-84
2022/12/24 12:13:54;;;;;;;5.60;0.63;;;12.30;99.90;;;;;;5055751;28;20974;-83
2022/12/24 12:16:26;;;;;;;0.90;0.30;;;12.30;99.90;;;;;;5055089;28;20454;-83
2022/12/24 12:18:59;;;;;;;0.30;0.30;;;12.40;99.90;;;;;;5056028;28;20431;-83
2022/12/24 12:21:38;;;;;;;0.43;0.40;;;12.50;99.90;;;;;;5055729;28;20933;-83
2022/12/24 12:24:12;;;;;;;0.30;0.30;;;12.50;99.90;;;;;;5055933;28;20474;-83
2022/12/24 12:26:41;;;;;;;0.40;0.30;;;12.60;99.90;;;;;;5055479;28;20469;-83
2022/12/24 12:29:23;;;;;;;1.40;0.80;;;12.70;99.90;;;;;;5055783;28;20450;-83
2022/12/24 12:31:56;;;;;;;0.63;0.30;;;12.70;99.90;;;;;;5055763;28;20438;-83
2022/12/24 12:34:28;;;;;;;0.30;0.27;;;12.80;99.90;;;;;;5055578;28;20470;-83
2022/12/24 12:37:00;;;;;;;0.50;0.40;;;12.90;99.90;;;;;;5055353;28;20910;-83
2022/12/24 12:39:27;;;;;;;0.70;0.43;;;13.00;99.90;;;;;;5056135;28;20435;-83
2022/12/24 12:41:59;;;;;;;0.40;0.30;;;13.00;99.90;;;;;;5057334;28;20458;-84
2022/12/24 12:44:50;;;;;;;0.70;0.40;;;12.90;99.90;;;;;;5055460;28;20470;-84
2022/12/24 12:47:31;;;;;;;0.40;0.40;;;12.90;99.90;;;;;;5055158;28;20458;-83
2022/12/24 12:50:06;;;;;;;0.33;0.30;;;12.70;99.90;;;;;;5055087;28;20910;-84
2022/12/24 12:52:51;;;;;;;0.30;0.30;;;12.60;99.90;;;;;;5055465;28;20443;-84
2022/12/24 12:55:31;;;;;;;0.60;0.30;;;12.50;99.90;;;;;;5055091;28;20418;-82
2022/12/24 12:58:02;;;;;;;0.63;0.30;;;12.50;99.90;;;;;;5055053;28;20933;-82
2022/12/24 13:00:33;;;;;;;0.70;0.40;;;12.30;99.90;;;;;;5055170;28;20438;-82
2022/12/24 13:03:22;;;;;;;1.07;0.43;;;12.20;99.90;;;;;;5055198;28;20463;-82
2022/12/24 13:06:13;;;;;;;0.30;0.30;;;12.20;99.90;;;;;;5054978;28;20439;-82
2022/12/24 13:09:15;;;;;;;0.50;0.50;;;12.10;99.90;;;;;;5054952;28;20443;-83
2022/12/24 13:12:14;;;;;;;2.00;0.40;;;11.90;99.90;;;;;;5044965;28;20446;-83
2022/12/24 13:14:53;;;;;;;0.40;0.30;;;11.80;99.90;;;;;;5054768;28;20985;-83
2022/12/24 13:17:43;;;;;;;0.30;0.20;;;11.70;99.90;;;;;;5054973;28;20769;-83